ADDS METAR Data INFO
IDs: Format: Raw Decoded Include TAF

Data at: 1716 UTC 23 Oct 2017

KOXC 231651Z 16009KT 10SM BKN019 19/15 A3027 RMK AO2 SLP259 T01940150
KOXC 231551Z 15012G16KT 10SM SCT019 BKN034 19/14 A3030 RMK AO2 SLP269 T01890144
KOXC 231528Z 15008KT 10SM SCT013 BKN027 18/14 A3030 RMK AO2
KOXC 231451Z 16008KT 10SM BKN007 18/15 A3031 RMK AO2 SLP276 T01780150 58009
KOXC 231437Z 16007KT 10SM BKN007 17/16 A3032 RMK AO2
KOXC 231351Z 16005KT 3SM BR OVC004 16/16 A3033 RMK AO2 SLP283 T01610156
KOXC 231251Z 15005KT 1SM BR OVC002 15/15 A3035 RMK AO2 SLP287 T01500150
KOXC 231151Z 14005KT 1SM BR OVC002 14/14 A3034 RMK AO2 SLP285 60000 T01440144 10144 20106 58004
KOXC 231125Z 14003KT 1SM BR OVC002 14/14 A3034 RMK AO2
KOXC 231112Z COR 16003KT 3/4SM BR BKN002 14/14 A3035 RMK AO2
KOXC 231051Z 14004KT 1/4SM FG BKN002 14/14 A3035 RMK AO2 SLP287 T01390139
KOXC 231023Z 15003KT 3/4SM BR VV002 14/14 A3035 RMK AO2
KOXC 230951Z AUTO 00000KT 1/4SM FG OVC001 14/14 A3036 RMK AO2 RAB24E49 SLP291 P0000 T01390139
KOXC 230924Z AUTO 00000KT 1/4SM -RA FG OVC001 13/13 A3036 RMK AO2 RAB24 P0000
KOXC 230920Z AUTO 00000KT 1/2SM FG OVC003 13/13 A3036 RMK AO2
KOXC 230916Z AUTO 00000KT 1SM BR OVC003 13/13 A3036 RMK AO2
KOXC 230908Z AUTO 00000KT 2 1/2SM BR OVC003 13/13 A3035 RMK AO2 CIG 001V007
KOXC 230851Z AUTO 00000KT 5SM BR OVC005 13/13 A3035 RMK AO2 CIG 001V007 SLP289 60000 T01330133 56009
KOXC 230837Z AUTO 19003KT 4SM BR OVC005 13/13 A3035 RMK AO2 CIG 001V007
KOXC 230751Z AUTO 14005KT 8SM BKN004 13/13 A3035 RMK AO2 RAE12 SLP290 P0000 T01280128
KOXC 230717Z AUTO 14006KT 5SM BR SCT002 13/13 A3035 RMK AO2 RAE12 P0000
KOXC 230707Z AUTO 14005KT 3SM -RA BR BKN002 13/13 A3036 RMK AO2 P0000
KOXC 230704Z AUTO 13005KT 1 1/2SM -RA BR BKN002 13/13 A3036 RMK AO2 VIS 1/2V4 P0000
KOXC 230651Z AUTO 15005KT 1/4SM -RA FG OVC002 13/13 A3036 RMK AO2 RAB36 SLP291 P0000 T01330128
KOXC 230642Z AUTO 14006KT 1/4SM -RA FG BKN002 13/13 A3037 RMK AO2 RAB36 P0000
KOXC 230637Z AUTO 14006KT 3/4SM -RA BR BKN002 13/13 A3037 RMK AO2 RAB36 P0000
KOXC 230634Z AUTO 14006KT 1 3/4SM BR BKN002 12/12 A3037 RMK AO2
KOXC 230626Z AUTO 14005KT 8SM SCT002 12/12 A3037 RMK AO2
KOXC 230551Z AUTO 16003KT 9SM CLR 11/11 A3038 RMK AO2 RAB29E40 SLP298 P0000 60000 T01110111 10144 20089 58008
KOXC 230451Z AUTO 16003KT 10SM CLR 11/10 A3039 RMK AO2 SLP302 T01060100 402440067
KOXC 230351Z AUTO 00000KT 10SM CLR 09/08 A3040 RMK AO2 SLP307 T00940083
KOXC 230251Z AUTO 00000KT 10SM CLR 12/10 A3040 RMK AO2 SLP307 T01170100 50004
KOXC 230151Z AUTO 00000KT 10SM CLR 12/11 A3040 RMK AO2 SLP307 T01170106
KOXC 230051Z 16004KT 10SM CLR 13/11 A3040 RMK AO2 SLP306 T01330111
KOXC 222351Z 13004KT 10SM CLR 14/11 A3039 RMK AO2 SLP306 T01440106 10244 20139 53004
KOXC 222151Z 18005KT 10SM CLR 18/08 A3038 RMK AO2 SLP300 T01780083
KOXC 222051Z 17006KT 10SM CLR 21/08 A3038 RMK AO2 SLP297 T02110078 56002
KOXC 221951Z 16008KT 10SM CLR 22/06 A3038 RMK AO2 SLP298 T02220061
KOXC 221851Z 17008KT 10SM CLR 24/06 A3038 RMK AO2 SLP298 T02390061
KOXC 221751Z 21007KT 10SM CLR 24/06 A3039 RMK AO2 SLP300 T02390056 10244 20072 58013
KOXC 221651Z VRB06KT 10SM CLR 23/07 A3040 RMK AO2 SLP307 T02330072
KOXC 221551Z VRB04KT 10SM CLR 22/07 A3041 RMK AO2 SLP309 T02220072
KOXC 221451Z 00000KT 10SM CLR 21/09 A3043 RMK AO2 SLP314 T02110089 50004
KOXC 221351Z 00000KT 10SM CLR 17/11 A3043 RMK AO2 SLP317 T01720106
KOXC 221251Z 00000KT 10SM CLR 12/08 A3043 RMK AO2 SLP317 T01220078
KOXC 221151Z 00000KT 10SM CLR 07/06 A3041 RMK AO2 SLP312 T00720061 10106 20067 53014
KOXC 221051Z 01003KT 10SM CLR 08/05 A3039 RMK AO2 SLP304 T00830050
KOXC 220951Z AUTO 00000KT 10SM CLR 08/06 A3038 RMK AO2 SLP301 T00780061
KOXC 220851Z AUTO 00000KT 10SM CLR 08/07 A3037 RMK AO2 SLP296 T00830067 53003
KOXC 220751Z AUTO 00000KT 10SM CLR 08/06 A3036 RMK AO2 SLP294 T00780061
KOXC 220651Z AUTO 00000KT 10SM CLR 10/07 A3036 RMK AO2 SLP292 T01000067
KOXC 220551Z AUTO 00000KT 10SM CLR 10/06 A3036 RMK AO2 SLP292 T01000061 10161 20083 58000